sensor_id;sensor_type;location;lat;lon;timestamp;pressure;altitude;pressure_sealevel;temperature;humidity
54588;BME280;40484;50.198;19.576;2022-07-09T00:03:50;102446.58;;;17.87;58.16
54588;BME280;40484;50.198;19.576;2022-07-09T00:08:53;102444.42;;;18.00;57.81
54588;BME280;40484;50.198;19.576;2022-07-09T00:13:54;102449.29;;;17.93;57.79
54588;BME280;40484;50.198;19.576;2022-07-09T00:18:56;102437.48;;;18.02;57.09
54588;BME280;40484;50.198;19.576;2022-07-09T00:23:58;102445.90;;;18.00;57.10
54588;BME280;40484;50.198;19.576;2022-07-09T00:28:59;102445.70;;;17.99;56.97
54588;BME280;40484;50.198;19.576;2022-07-09T00:34:01;102448.63;;;17.97;56.71
54588;BME280;40484;50.198;19.576;2022-07-09T00:39:03;102453.48;;;18.00;56.71
54588;BME280;40484;50.198;19.576;2022-07-09T00:44:05;102452.58;;;18.10;56.51
54588;BME280;40484;50.198;19.576;2022-07-09T00:49:06;102447.27;;;18.15;56.25
54588;BME280;40484;50.198;19.576;2022-07-09T00:54:08;102459.13;;;18.04;56.74
54588;BME280;40484;50.198;19.576;2022-07-09T00:59:38;102452.91;;;18.21;56.27
54588;BME280;40484;50.198;19.576;2022-07-09T01:04:40;102454.34;;;18.31;55.96
54588;BME280;40484;50.198;19.576;2022-07-09T01:09:41;102452.59;;;18.43;55.63
54588;BME280;40484;50.198;19.576;2022-07-09T01:14:43;102444.75;;;18.48;55.50
54588;BME280;40484;50.198;19.576;2022-07-09T01:19:45;102450.24;;;18.44;55.60
54588;BME280;40484;50.198;19.576;2022-07-09T01:24:47;102450.84;;;18.53;55.58
54588;BME280;40484;50.198;19.576;2022-07-09T01:29:50;102441.58;;;18.52;55.53
54588;BME280;40484;50.198;19.576;2022-07-09T01:34:52;102436.57;;;18.42;56.02
54588;BME280;40484;50.198;19.576;2022-07-09T01:39:53;102434.11;;;18.37;56.32
54588;BME280;40484;50.198;19.576;2022-07-09T01:44:55;102434.52;;;18.36;56.38
54588;BME280;40484;50.198;19.576;2022-07-09T01:49:57;102432.57;;;18.13;56.91
54588;BME280;40484;50.198;19.576;2022-07-09T01:54:58;102420.85;;;17.98;57.52
54588;BME280;40484;50.198;19.576;2022-07-09T02:00:00;102418.97;;;18.00;57.61
54588;BME280;40484;50.198;19.576;2022-07-09T02:05:02;102408.46;;;17.97;57.75
54588;BME280;40484;50.198;19.576;2022-07-09T02:10:05;102407.36;;;18.06;57.42
54588;BME280;40484;50.198;19.576;2022-07-09T02:15:07;102408.46;;;17.95;57.55
54588;BME280;40484;50.198;19.576;2022-07-09T02:20:09;102400.30;;;17.86;57.96
54588;BME280;40484;50.198;19.576;2022-07-09T02:25:12;102398.00;;;17.85;57.93
54588;BME280;40484;50.198;19.576;2022-07-09T02:30:14;102393.63;;;17.69;58.51
54588;BME280;40484;50.198;19.576;2022-07-09T02:35:16;102396.98;;;17.75;58.36
54588;BME280;40484;50.198;19.576;2022-07-09T02:40:45;102398.90;;;17.66;58.64
54588;BME280;40484;50.198;19.576;2022-07-09T02:45:46;102400.55;;;17.80;58.19
54588;BME280;40484;50.198;19.576;2022-07-09T02:50:49;102398.27;;;17.67;58.21
54588;BME280;40484;50.198;19.576;2022-07-09T02:55:51;102392.98;;;17.79;57.90
54588;BME280;40484;50.198;19.576;2022-07-09T03:00:52;102400.96;;;17.80;57.49
54588;BME280;40484;50.198;19.576;2022-07-09T03:05:54;102395.07;;;17.77;57.55
54588;BME280;40484;50.198;19.576;2022-07-09T03:10:56;102391.52;;;17.70;57.55
54588;BME280;40484;50.198;19.576;2022-07-09T03:15:58;102394.52;;;17.57;57.55
54588;BME280;40484;50.198;19.576;2022-07-09T03:21:00;102374.11;;;17.58;57.70
54588;BME280;40484;50.198;19.576;2022-07-09T03:26:05;102373.48;;;17.59;57.45
54588;BME280;40484;50.198;19.576;2022-07-09T03:31:07;102382.37;;;17.50;57.61
54588;BME280;40484;50.198;19.576;2022-07-09T03:36:09;102388.31;;;17.37;58.08
54588;BME280;40484;50.198;19.576;2022-07-09T03:41:11;102390.60;;;17.36;58.39
54588;BME280;40484;50.198;19.576;2022-07-09T03:46:12;102383.22;;;17.45;58.44
54588;BME280;40484;50.198;19.576;2022-07-09T03:51:14;102384.80;;;17.69;57.72
54588;BME280;40484;50.198;19.576;2022-07-09T03:56:16;102381.58;;;17.86;57.30
54588;BME280;40484;50.198;19.576;2022-07-09T04:01:17;102371.50;;;17.87;57.19
54588;BME280;40484;50.198;19.576;2022-07-09T04:06:19;102381.20;;;17.73;57.53
54588;BME280;40484;50.198;19.576;2022-07-09T04:11:21;102380.09;;;17.93;57.06
54588;BME280;40484;50.198;19.576;2022-07-09T04:16:23;102376.77;;;17.84;56.70
54588;BME280;40484;50.198;19.576;2022-07-09T04:21:24;102369.23;;;17.72;57.17
54588;BME280;40484;50.198;19.576;2022-07-09T04:26:51;102369.69;;;17.66;57.38
54588;BME280;40484;50.198;19.576;2022-07-09T04:31:52;102371.31;;;17.74;57.47
54588;BME280;40484;50.198;19.576;2022-07-09T04:36:54;102370.02;;;17.84;57.32
54588;BME280;40484;50.198;19.576;2022-07-09T04:41:55;102369.16;;;17.87;57.01
54588;BME280;40484;50.198;19.576;2022-07-09T04:46:57;102370.91;;;17.79;57.13
54588;BME280;40484;50.198;19.576;2022-07-09T04:51:59;102377.59;;;17.88;57.46
54588;BME280;40484;50.198;19.576;2022-07-09T04:57:00;102386.98;;;18.00;57.07
54588;BME280;40484;50.198;19.576;2022-07-09T05:02:02;102377.66;;;18.07;57.28
54588;BME280;40484;50.198;19.576;2022-07-09T05:07:04;102382.49;;;18.13;56.73
54588;BME280;40484;50.198;19.576;2022-07-09T05:12:07;102387.18;;;18.35;56.49
54588;BME280;40484;50.198;19.576;2022-07-09T05:17:10;102384.77;;;18.45;55.80
54588;BME280;40484;50.198;19.576;2022-07-09T05:22:12;102392.48;;;18.26;56.22
54588;BME280;40484;50.198;19.576;2022-07-09T05:27:14;102392.62;;;18.40;56.08
54588;BME280;40484;50.198;19.576;2022-07-09T05:32:15;102388.36;;;18.46;55.41
54588;BME280;40484;50.198;19.576;2022-07-09T05:37:17;102395.05;;;18.48;54.94
54588;BME280;40484;50.198;19.576;2022-07-09T05:42:18;102385.90;;;18.37;55.64
54588;BME280;40484;50.198;19.576;2022-07-09T05:47:20;102384.41;;;18.37;55.75
54588;BME280;40484;50.198;19.576;2022-07-09T05:52:22;102384.63;;;18.61;55.18
54588;BME280;40484;50.198;19.576;2022-07-09T05:57:23;102384.31;;;18.50;55.36
54588;BME280;40484;50.198;19.576;2022-07-09T06:02:25;102374.88;;;18.71;55.03
54588;BME280;40484;50.198;19.576;2022-07-09T06:07:27;102365.96;;;19.01;54.21
54588;BME280;40484;50.198;19.576;2022-07-09T06:12:55;102366.69;;;19.31;53.98
54588;BME280;40484;50.198;19.576;2022-07-09T06:17:56;102364.24;;;19.24;54.47
54588;BME280;40484;50.198;19.576;2022-07-09T06:22:58;102367.48;;;18.97;55.38
54588;BME280;40484;50.198;19.576;2022-07-09T06:27:59;102365.86;;;18.89;55.73
54588;BME280;40484;50.198;19.576;2022-07-09T06:33:02;102361.63;;;19.12;55.14
54588;BME280;40484;50.198;19.576;2022-07-09T06:38:03;102366.19;;;19.02;55.02
54588;BME280;40484;50.198;19.576;2022-07-09T06:43:05;102361.61;;;18.95;55.20
54588;BME280;40484;50.198;19.576;2022-07-09T06:48:09;102352.69;;;19.03;55.16
54588;BME280;40484;50.198;19.576;2022-07-09T06:53:10;102349.18;;;18.94;54.91
54588;BME280;40484;50.198;19.576;2022-07-09T06:58:12;102347.51;;;18.93;55.48
54588;BME280;40484;50.198;19.576;2022-07-09T07:03:15;102345.30;;;19.20;54.63
54588;BME280;40484;50.198;19.576;2022-07-09T07:08:16;102354.52;;;19.08;53.40
54588;BME280;40484;50.198;19.576;2022-07-09T07:13:19;102354.76;;;19.06;55.42
54588;BME280;40484;50.198;19.576;2022-07-09T07:18:20;102347.09;;;19.32;52.37
54588;BME280;40484;50.198;19.576;2022-07-09T07:23:22;102347.54;;;19.62;52.81
54588;BME280;40484;50.198;19.576;2022-07-09T07:28:24;102349.57;;;19.85;50.26
54588;BME280;40484;50.198;19.576;2022-07-09T07:33:26;102353.07;;;19.75;49.60
54588;BME280;40484;50.198;19.576;2022-07-09T07:38:27;102345.91;;;19.76;50.74
54588;BME280;40484;50.198;19.576;2022-07-09T07:43:29;102336.09;;;19.98;50.21
54588;BME280;40484;50.198;19.576;2022-07-09T07:48:31;102331.30;;;20.06;48.74
54588;BME280;40484;50.198;19.576;2022-07-09T07:53:33;102330.27;;;20.20;47.94
54588;BME280;40484;50.198;19.576;2022-07-09T07:58:59;102337.12;;;20.50;47.82
54588;BME280;40484;50.198;19.576;2022-07-09T08:04:01;102339.39;;;20.41;48.19
54588;BME280;40484;50.198;19.576;2022-07-09T08:09:03;102337.65;;;20.58;48.46
54588;BME280;40484;50.198;19.576;2022-07-09T08:14:05;102330.91;;;20.44;47.82
54588;BME280;40484;50.198;19.576;2022-07-09T08:19:08;102323.70;;;20.71;47.77
54588;BME280;40484;50.198;19.576;2022-07-09T08:24:10;102314.83;;;20.71;48.03
54588;BME280;40484;50.198;19.576;2022-07-09T08:29:12;102316.58;;;20.56;47.47
54588;BME280;40484;50.198;19.576;2022-07-09T08:34:14;102304.41;;;20.74;48.56
54588;BME280;40484;50.198;19.576;2022-07-09T08:39:16;102298.70;;;20.85;46.45
54588;BME280;40484;50.198;19.576;2022-07-09T08:44:19;102290.05;;;21.06;46.24
54588;BME280;40484;50.198;19.576;2022-07-09T08:49:22;102296.97;;;21.19;47.09
54588;BME280;40484;50.198;19.576;2022-07-09T08:54:24;102292.53;;;21.19;45.72
54588;BME280;40484;50.198;19.576;2022-07-09T08:59:26;102303.07;;;21.21;46.63
54588;BME280;40484;50.198;19.576;2022-07-09T09:04:28;102282.85;;;21.17;45.89
54588;BME280;40484;50.198;19.576;2022-07-09T09:09:34;102281.77;;;21.09;46.02
54588;BME280;40484;50.198;19.576;2022-07-09T09:14:33;102275.56;;;20.68;47.72
54588;BME280;40484;50.198;19.576;2022-07-09T09:19:35;102282.34;;;20.91;48.03
54588;BME280;40484;50.198;19.576;2022-07-09T09:24:37;102284.11;;;20.96;48.50
54588;BME280;40484;50.198;19.576;2022-07-09T09:29:48;102292.48;;;20.56;48.86
54588;BME280;40484;50.198;19.576;2022-07-09T09:34:48;102287.52;;;20.24;50.41
54588;BME280;40484;50.198;19.576;2022-07-09T09:40:10;102272.92;;;20.62;49.36
54588;BME280;40484;50.198;19.576;2022-07-09T09:45:13;102268.91;;;20.74;48.57
54588;BME280;40484;50.198;19.576;2022-07-09T09:50:19;102266.05;;;21.21;48.05
54588;BME280;40484;50.198;19.576;2022-07-09T09:55:22;102251.07;;;21.59;46.32
54588;BME280;40484;50.198;19.576;2022-07-09T10:00:24;102253.67;;;21.84;46.15
54588;BME280;40484;50.198;19.576;2022-07-09T10:05:26;102245.15;;;21.59;46.87
54588;BME280;40484;50.198;19.576;2022-07-09T10:10:28;102243.05;;;21.58;46.25
54588;BME280;40484;50.198;19.576;2022-07-09T10:15:31;102232.12;;;21.65;45.62
54588;BME280;40484;50.198;19.576;2022-07-09T10:20:34;102219.87;;;21.81;43.42
54588;BME280;40484;50.198;19.576;2022-07-09T10:25:44;102213.70;;;22.16;43.91
54588;BME280;40484;50.198;19.576;2022-07-09T10:30:51;102209.23;;;22.00;43.26
54588;BME280;40484;50.198;19.576;2022-07-09T10:35:54;102202.97;;;22.04;43.91
54588;BME280;40484;50.198;19.576;2022-07-09T10:40:57;102207.80;;;22.06;44.47
54588;BME280;40484;50.198;19.576;2022-07-09T10:46:00;102207.70;;;21.94;45.99
54588;BME280;40484;50.198;19.576;2022-07-09T10:51:03;102208.41;;;21.73;46.63
54588;BME280;40484;50.198;19.576;2022-07-09T10:56:05;102194.34;;;21.69;46.31
54588;BME280;40484;50.198;19.576;2022-07-09T11:01:34;102178.45;;;22.28;44.89
54588;BME280;40484;50.198;19.576;2022-07-09T11:06:45;102176.35;;;22.58;43.84
54588;BME280;40484;50.198;19.576;2022-07-09T11:11:48;102176.81;;;22.56;42.17
54588;BME280;40484;50.198;19.576;2022-07-09T11:16:56;102180.99;;;22.20;43.47
54588;BME280;40484;50.198;19.576;2022-07-09T11:22:02;102174.84;;;21.96;45.01
54588;BME280;40484;50.198;19.576;2022-07-09T11:27:06;102165.61;;;22.09;45.34
54588;BME280;40484;50.198;19.576;2022-07-09T11:32:09;102148.78;;;22.37;43.40
54588;BME280;40484;50.198;19.576;2022-07-09T11:37:11;102150.48;;;23.36;42.21
54588;BME280;40484;50.198;19.576;2022-07-09T11:42:16;102138.17;;;23.17;42.08
54588;BME280;40484;50.198;19.576;2022-07-09T11:47:16;102133.11;;;22.80;38.52
54588;BME280;40484;50.198;19.576;2022-07-09T11:52:21;102139.80;;;22.76;39.16
54588;BME280;40484;50.198;19.576;2022-07-09T11:57:24;102131.59;;;23.30;40.40
54588;BME280;40484;50.198;19.576;2022-07-09T12:02:28;102136.73;;;23.66;41.13
54588;BME280;40484;50.198;19.576;2022-07-09T12:07:29;102113.61;;;24.04;38.93
54588;BME280;40484;50.198;19.576;2022-07-09T12:12:32;102104.55;;;24.48;40.30
54588;BME280;40484;50.198;19.576;2022-07-09T12:17:34;102105.38;;;24.49;38.07
54588;BME280;40484;50.198;19.576;2022-07-09T12:23:01;102105.77;;;24.03;38.41
54588;BME280;40484;50.198;19.576;2022-07-09T12:28:03;102104.14;;;23.58;39.62
54588;BME280;40484;50.198;19.576;2022-07-09T12:33:04;102099.97;;;23.81;42.38
54588;BME280;40484;50.198;19.576;2022-07-09T12:38:06;102076.18;;;24.28;38.99
54588;BME280;40484;50.198;19.576;2022-07-09T12:43:08;102054.78;;;24.71;36.79
54588;BME280;40484;50.198;19.576;2022-07-09T12:48:10;102069.10;;;24.13;33.17
54588;BME280;40484;50.198;19.576;2022-07-09T12:53:11;102067.37;;;24.14;33.99
54588;BME280;40484;50.198;19.576;2022-07-09T12:58:13;102059.84;;;24.33;30.53
54588;BME280;40484;50.198;19.576;2022-07-09T13:03:15;102052.32;;;23.95;31.00
54588;BME280;40484;50.198;19.576;2022-07-09T13:08:16;102050.15;;;23.91;31.02
54588;BME280;40484;50.198;19.576;2022-07-09T13:13:18;102044.23;;;23.96;32.02
54588;BME280;40484;50.198;19.576;2022-07-09T13:18:20;102035.94;;;24.69;32.50
54588;BME280;40484;50.198;19.576;2022-07-09T13:23:21;102036.57;;;24.80;30.81
54588;BME280;40484;50.198;19.576;2022-07-09T13:28:23;102035.31;;;24.59;31.01
54588;BME280;40484;50.198;19.576;2022-07-09T13:33:25;102028.75;;;24.58;31.50
54588;BME280;40484;50.198;19.576;2022-07-09T13:38:26;102023.52;;;24.82;30.95
54588;BME280;40484;50.198;19.576;2022-07-09T13:43:28;102021.02;;;24.91;30.28
54588;BME280;40484;50.198;19.576;2022-07-09T13:48:30;102014.72;;;25.16;30.44
54588;BME280;40484;50.198;19.576;2022-07-09T13:53:31;102012.93;;;25.12;29.05
54588;BME280;40484;50.198;19.576;2022-07-09T13:58:33;102007.57;;;24.82;29.23
54588;BME280;40484;50.198;19.576;2022-07-09T14:03:38;102002.89;;;25.03;30.44
54588;BME280;40484;50.198;19.576;2022-07-09T14:09:05;102001.66;;;24.91;27.98
54588;BME280;40484;50.198;19.576;2022-07-09T14:14:07;101996.37;;;24.49;29.19
54588;BME280;40484;50.198;19.576;2022-07-09T14:19:08;101988.10;;;24.48;30.32
54588;BME280;40484;50.198;19.576;2022-07-09T14:24:10;101986.42;;;24.69;29.71
54588;BME280;40484;50.198;19.576;2022-07-09T14:29:12;101988.58;;;24.73;28.67
54588;BME280;40484;50.198;19.576;2022-07-09T14:34:15;101968.46;;;24.55;29.01
54588;BME280;40484;50.198;19.576;2022-07-09T14:39:19;101970.54;;;25.08;27.83
54588;BME280;40484;50.198;19.576;2022-07-09T14:44:25;101966.52;;;24.61;29.08
54588;BME280;40484;50.198;19.576;2022-07-09T14:49:27;101966.52;;;24.39;29.17
54588;BME280;40484;50.198;19.576;2022-07-09T14:54:30;101962.74;;;24.50;29.05
54588;BME280;40484;50.198;19.576;2022-07-09T14:59:32;101958.97;;;24.54;28.86
54588;BME280;40484;50.198;19.576;2022-07-09T15:04:33;101955.73;;;24.86;30.39
54588;BME280;40484;50.198;19.576;2022-07-09T15:09:35;101955.59;;;25.10;29.43
54588;BME280;40484;50.198;19.576;2022-07-09T15:14:37;101950.79;;;24.88;30.35
54588;BME280;40484;50.198;19.576;2022-07-09T15:19:38;101948.70;;;24.50;30.23
54588;BME280;40484;50.198;19.576;2022-07-09T15:24:40;101939.22;;;24.32;31.52
54588;BME280;40484;50.198;19.576;2022-07-09T15:29:42;101937.45;;;24.06;31.24
54588;BME280;40484;50.198;19.576;2022-07-09T15:34:43;101939.84;;;24.05;31.70
54588;BME280;40484;50.198;19.576;2022-07-09T15:39:46;101936.00;;;24.00;31.76
54588;BME280;40484;50.198;19.576;2022-07-09T15:44:48;101933.69;;;23.88;32.24
54588;BME280;40484;50.198;19.576;2022-07-09T15:50:14;101922.83;;;24.05;31.72
54588;BME280;40484;50.198;19.576;2022-07-09T15:55:16;101911.09;;;23.84;31.89
54588;BME280;40484;50.198;19.576;2022-07-09T16:00:17;101917.59;;;23.98;32.22
54588;BME280;40484;50.198;19.576;2022-07-09T16:05:24;101907.00;;;24.19;31.80
54588;BME280;40484;50.198;19.576;2022-07-09T16:10:25;101904.60;;;24.21;31.72
54588;BME280;40484;50.198;19.576;2022-07-09T16:15:28;101900.38;;;24.42;32.20
54588;BME280;40484;50.198;19.576;2022-07-09T16:20:30;101907.41;;;24.62;33.12
54588;BME280;40484;50.198;19.576;2022-07-09T16:25:31;101903.82;;;24.51;32.01
54588;BME280;40484;50.198;19.576;2022-07-09T16:30:33;101909.51;;;24.68;32.22
54588;BME280;40484;50.198;19.576;2022-07-09T16:35:35;101905.45;;;24.48;32.74
54588;BME280;40484;50.198;19.576;2022-07-09T16:40:36;101909.03;;;23.83;33.17
54588;BME280;40484;50.198;19.576;2022-07-09T16:45:40;101906.80;;;23.70;33.53
54588;BME280;40484;50.198;19.576;2022-07-09T16:50:42;101903.12;;;23.53;33.87
54588;BME280;40484;50.198;19.576;2022-07-09T16:55:44;101905.88;;;23.65;34.08
54588;BME280;40484;50.198;19.576;2022-07-09T17:00:46;101894.70;;;23.51;34.36
54588;BME280;40484;50.198;19.576;2022-07-09T17:05:47;101895.39;;;23.44;34.76
54588;BME280;40484;50.198;19.576;2022-07-09T17:10:49;101890.93;;;23.38;34.91
54588;BME280;40484;50.198;19.576;2022-07-09T17:15:51;101886.68;;;23.50;34.94
54588;BME280;40484;50.198;19.576;2022-07-09T17:20:53;101891.30;;;23.57;35.41
54588;BME280;40484;50.198;19.576;2022-07-09T17:25:55;101887.88;;;23.70;35.13
54588;BME280;40484;50.198;19.576;2022-07-09T17:31:23;101889.30;;;23.83;35.00
54588;BME280;40484;50.198;19.576;2022-07-09T17:36:25;101888.16;;;23.96;35.18
54588;BME280;40484;50.198;19.576;2022-07-09T17:41:30;101887.98;;;24.32;36.03
54588;BME280;40484;50.198;19.576;2022-07-09T17:46:31;101890.56;;;24.63;36.11
54588;BME280;40484;50.198;19.576;2022-07-09T17:51:33;101894.54;;;24.65;36.00
54588;BME280;40484;50.198;19.576;2022-07-09T17:56:35;101900.99;;;24.63;35.47
54588;BME280;40484;50.198;19.576;2022-07-09T18:01:36;101885.81;;;24.55;35.91
54588;BME280;40484;50.198;19.576;2022-07-09T18:06:38;101878.91;;;24.36;35.68
54588;BME280;40484;50.198;19.576;2022-07-09T18:11:40;101882.46;;;23.95;35.84
54588;BME280;40484;50.198;19.576;2022-07-09T18:16:42;101886.48;;;23.55;35.83
54588;BME280;40484;50.198;19.576;2022-07-09T18:21:46;101886.05;;;23.27;36.07
54588;BME280;40484;50.198;19.576;2022-07-09T18:26:49;101895.74;;;23.16;36.67
54588;BME280;40484;50.198;19.576;2022-07-09T18:31:51;101893.50;;;23.20;36.81
54588;BME280;40484;50.198;19.576;2022-07-09T18:36:53;101892.59;;;23.22;36.98
54588;BME280;40484;50.198;19.576;2022-07-09T18:41:55;101887.50;;;23.16;36.59
54588;BME280;40484;50.198;19.576;2022-07-09T18:46:56;101894.35;;;22.89;36.82
54588;BME280;40484;50.198;19.576;2022-07-09T18:51:58;101892.94;;;22.74;37.04
54588;BME280;40484;50.198;19.576;2022-07-09T18:56:59;101891.50;;;22.73;37.05
54588;BME280;40484;50.198;19.576;2022-07-09T19:02:01;101886.98;;;22.94;37.86
54588;BME280;40484;50.198;19.576;2022-07-09T19:07:03;101888.88;;;23.30;38.10
54588;BME280;40484;50.198;19.576;2022-07-09T19:12:30;101891.27;;;23.64;38.48
54588;BME280;40484;50.198;19.576;2022-07-09T19:17:33;101884.72;;;23.69;38.67
54588;BME280;40484;50.198;19.576;2022-07-09T19:22:35;101883.86;;;23.68;38.92
54588;BME280;40484;50.198;19.576;2022-07-09T19:27:38;101888.05;;;23.65;39.08
54588;BME280;40484;50.198;19.576;2022-07-09T19:32:40;101879.77;;;23.53;39.59
54588;BME280;40484;50.198;19.576;2022-07-09T19:38:19;101887.89;;;23.22;39.38
54588;BME280;40484;50.198;19.576;2022-07-09T19:43:21;101883.14;;;23.08;39.43
54588;BME280;40484;50.198;19.576;2022-07-09T19:48:23;101879.24;;;22.98;39.88
54588;BME280;40484;50.198;19.576;2022-07-09T19:53:24;101880.22;;;22.87;40.13
54588;BME280;40484;50.198;19.576;2022-07-09T19:58:26;101876.73;;;22.77;40.25
54588;BME280;40484;50.198;19.576;2022-07-09T20:03:28;101884.05;;;22.68;40.53
54588;BME280;40484;50.198;19.576;2022-07-09T20:08:29;101883.38;;;22.49;40.74
54588;BME280;40484;50.198;19.576;2022-07-09T20:13:31;101886.27;;;22.32;41.05
54588;BME280;40484;50.198;19.576;2022-07-09T20:18:33;101886.87;;;22.20;41.31
54588;BME280;40484;50.198;19.576;2022-07-09T20:24:02;101887.63;;;22.16;41.37
54588;BME280;40484;50.198;19.576;2022-07-09T20:29:04;101883.83;;;22.08;41.62
54588;BME280;40484;50.198;19.576;2022-07-09T20:34:06;101895.84;;;21.90;41.81
54588;BME280;40484;50.198;19.576;2022-07-09T20:39:07;101893.35;;;21.80;41.93
54588;BME280;40484;50.198;19.576;2022-07-09T20:44:09;101889.80;;;21.79;41.79
54588;BME280;40484;50.198;19.576;2022-07-09T20:49:11;101897.23;;;21.70;41.97
54588;BME280;40484;50.198;19.576;2022-07-09T20:54:14;101895.46;;;21.73;42.08
54588;BME280;40484;50.198;19.576;2022-07-09T20:59:16;101909.64;;;21.80;41.83
54588;BME280;40484;50.198;19.576;2022-07-09T21:04:17;101907.40;;;21.78;41.19
54588;BME280;40484;50.198;19.576;2022-07-09T21:09:19;101908.52;;;21.46;40.77
54588;BME280;40484;50.198;19.576;2022-07-09T21:14:21;101912.13;;;21.05;41.55
54588;BME280;40484;50.198;19.576;2022-07-09T21:19:22;101906.30;;;20.93;41.61
54588;BME280;40484;50.198;19.576;2022-07-09T21:24:24;101902.01;;;21.04;42.15
54588;BME280;40484;50.198;19.576;2022-07-09T21:32:29;101893.06;;;21.39;42.29
54588;BME280;40484;50.198;19.576;2022-07-09T21:37:31;101894.05;;;21.48;42.55
54588;BME280;40484;50.198;19.576;2022-07-09T21:42:32;101895.58;;;21.40;41.80
54588;BME280;40484;50.198;19.576;2022-07-09T21:47:34;101892.27;;;21.36;41.30
54588;BME280;40484;50.198;19.576;2022-07-09T21:52:36;101887.70;;;21.25;40.96
54588;BME280;40484;50.198;19.576;2022-07-09T21:57:37;101890.68;;;21.01;41.28
54588;BME280;40484;50.198;19.576;2022-07-09T22:02:39;101885.38;;;20.69;41.92
54588;BME280;40484;50.198;19.576;2022-07-09T22:07:41;101882.52;;;20.90;42.30
54588;BME280;40484;50.198;19.576;2022-07-09T22:12:43;101875.04;;;21.08;42.29
54588;BME280;40484;50.198;19.576;2022-07-09T22:17:44;101877.30;;;21.03;42.48
54588;BME280;40484;50.198;19.576;2022-07-09T22:22:46;101868.39;;;20.96;42.88
54588;BME280;40484;50.198;19.576;2022-07-09T22:27:48;101867.48;;;20.83;42.72
54588;BME280;40484;50.198;19.576;2022-07-09T22:32:50;101863.19;;;20.86;43.16
54588;BME280;40484;50.198;19.576;2022-07-09T22:37:51;101858.47;;;20.88;43.53
54588;BME280;40484;50.198;19.576;2022-07-09T22:42:53;101849.23;;;20.86;43.82
54588;BME280;40484;50.198;19.576;2022-07-09T22:47:54;101848.91;;;20.91;43.53
54588;BME280;40484;50.198;19.576;2022-07-09T22:52:56;101851.88;;;20.66;43.63
54588;BME280;40484;50.198;19.576;2022-07-09T22:57:58;101836.52;;;20.29;44.30
54588;BME280;40484;50.198;19.576;2022-07-09T23:03:00;101843.09;;;20.44;44.28
54588;BME280;40484;50.198;19.576;2022-07-09T23:08:01;101832.30;;;20.62;44.13
54588;BME280;40484;50.198;19.576;2022-07-09T23:14:06;101818.80;;;20.78;44.00
54588;BME280;40484;50.198;19.576;2022-07-09T23:19:08;101819.23;;;20.86;44.11
54588;BME280;40484;50.198;19.576;2022-07-09T23:24:09;101822.69;;;20.75;44.03
54588;BME280;40484;50.198;19.576;2022-07-09T23:29:11;101828.53;;;20.35;44.56
54588;BME280;40484;50.198;19.576;2022-07-09T23:34:13;101832.89;;;20.03;45.23
54588;BME280;40484;50.198;19.576;2022-07-09T23:39:14;101834.96;;;19.96;45.51
54588;BME280;40484;50.198;19.576;2022-07-09T23:44:16;101837.32;;;19.85;45.89
54588;BME280;40484;50.198;19.576;2022-07-09T23:49:18;101834.72;;;19.68;46.47
54588;BME280;40484;50.198;19.576;2022-07-09T23:54:19;101830.68;;;19.71;46.48
54588;BME280;40484;50.198;19.576;2022-07-09T23:59:21;101819.27;;;19.71;46.59
